sensor_id;sensor_type;location;lat;lon;timestamp;P1;durP1;ratioP1;P2;durP2;ratioP2
7917;SDS011;4004;42.624;23.386;2023-07-22T00:00:04;6.43;;;4.63;;
7917;SDS011;4004;42.624;23.386;2023-07-22T00:02:39;6.57;;;4.33;;
7917;SDS011;4004;42.624;23.386;2023-07-22T00:05:06;6.10;;;4.77;;
7917;SDS011;4004;42.624;23.386;2023-07-22T00:07:33;8.13;;;4.20;;
7917;SDS011;4004;42.624;23.386;2023-07-22T00:10:02;11.47;;;5.03;;
7917;SDS011;4004;42.624;23.386;2023-07-22T00:12:30;9.47;;;4.40;;
7917;SDS011;4004;42.624;23.386;2023-07-22T00:14:57;8.37;;;3.97;;
7917;SDS011;4004;42.624;23.386;2023-07-22T00:17:24;8.13;;;4.20;;
7917;SDS011;4004;42.624;23.386;2023-07-22T00:19:50;8.50;;;4.97;;
7917;SDS011;4004;42.624;23.386;2023-07-22T00:22:17;10.80;;;5.10;;
7917;SDS011;4004;42.624;23.386;2023-07-22T00:24:45;9.93;;;4.97;;
7917;SDS011;4004;42.624;23.386;2023-07-22T00:27:13;13.03;;;5.53;;
7917;SDS011;4004;42.624;23.386;2023-07-22T00:29:40;13.63;;;5.40;;
7917;SDS011;4004;42.624;23.386;2023-07-22T00:32:07;15.40;;;5.77;;
7917;SDS011;4004;42.624;23.386;2023-07-22T00:34:34;15.60;;;5.93;;
7917;SDS011;4004;42.624;23.386;2023-07-22T00:37:01;10.03;;;4.97;;
7917;SDS011;4004;42.624;23.386;2023-07-22T00:39:28;10.87;;;5.23;;
7917;SDS011;4004;42.624;23.386;2023-07-22T00:41:55;11.23;;;5.60;;
7917;SDS011;4004;42.624;23.386;2023-07-22T00:44:23;12.77;;;5.63;;
7917;SDS011;4004;42.624;23.386;2023-07-22T00:46:50;10.87;;;5.77;;
7917;SDS011;4004;42.624;23.386;2023-07-22T00:49:21;15.03;;;6.37;;
7917;SDS011;4004;42.624;23.386;2023-07-22T00:51:49;10.50;;;5.40;;
7917;SDS011;4004;42.624;23.386;2023-07-22T00:54:15;8.93;;;5.70;;
7917;SDS011;4004;42.624;23.386;2023-07-22T00:56:42;9.33;;;5.30;;
7917;SDS011;4004;42.624;23.386;2023-07-22T00:59:10;12.60;;;5.50;;
7917;SDS011;4004;42.624;23.386;2023-07-22T01:01:38;14.27;;;5.70;;
7917;SDS011;4004;42.624;23.386;2023-07-22T01:04:05;11.33;;;5.30;;
7917;SDS011;4004;42.624;23.386;2023-07-22T01:06:32;10.37;;;6.10;;
7917;SDS011;4004;42.624;23.386;2023-07-22T01:09:01;10.47;;;5.43;;
7917;SDS011;4004;42.624;23.386;2023-07-22T01:11:28;10.97;;;4.90;;
7917;SDS011;4004;42.624;23.386;2023-07-22T01:13:55;8.20;;;5.27;;
7917;SDS011;4004;42.624;23.386;2023-07-22T01:16:24;7.50;;;5.00;;
7917;SDS011;4004;42.624;23.386;2023-07-22T01:18:54;7.27;;;5.00;;
7917;SDS011;4004;42.624;23.386;2023-07-22T01:21:22;8.57;;;5.10;;
7917;SDS011;4004;42.624;23.386;2023-07-22T01:23:51;10.50;;;5.07;;
7917;SDS011;4004;42.624;23.386;2023-07-22T01:26:18;12.17;;;5.03;;
7917;SDS011;4004;42.624;23.386;2023-07-22T01:28:45;9.60;;;5.07;;
7917;SDS011;4004;42.624;23.386;2023-07-22T01:31:12;11.00;;;4.70;;
7917;SDS011;4004;42.624;23.386;2023-07-22T01:33:39;6.80;;;4.60;;
7917;SDS011;4004;42.624;23.386;2023-07-22T01:36:05;9.13;;;4.80;;
7917;SDS011;4004;42.624;23.386;2023-07-22T01:38:32;10.10;;;5.07;;
7917;SDS011;4004;42.624;23.386;2023-07-22T01:41:02;9.63;;;4.73;;
7917;SDS011;4004;42.624;23.386;2023-07-22T01:43:29;7.13;;;5.03;;
7917;SDS011;4004;42.624;23.386;2023-07-22T01:45:55;7.63;;;5.27;;
7917;SDS011;4004;42.624;23.386;2023-07-22T01:48:22;6.93;;;4.80;;
7917;SDS011;4004;42.624;23.386;2023-07-22T01:50:49;10.17;;;5.27;;
7917;SDS011;4004;42.624;23.386;2023-07-22T01:53:16;7.67;;;4.73;;
7917;SDS011;4004;42.624;23.386;2023-07-22T01:55:43;7.83;;;5.10;;
7917;SDS011;4004;42.624;23.386;2023-07-22T01:58:12;8.00;;;4.90;;
7917;SDS011;4004;42.624;23.386;2023-07-22T02:00:38;6.47;;;5.10;;
7917;SDS011;4004;42.624;23.386;2023-07-22T02:03:05;10.77;;;5.47;;
7917;SDS011;4004;42.624;23.386;2023-07-22T02:05:32;6.87;;;5.20;;
7917;SDS011;4004;42.624;23.386;2023-07-22T02:07:59;5.93;;;4.27;;
7917;SDS011;4004;42.624;23.386;2023-07-22T02:10:25;6.90;;;5.37;;
7917;SDS011;4004;42.624;23.386;2023-07-22T02:12:52;7.83;;;5.40;;
7917;SDS011;4004;42.624;23.386;2023-07-22T02:15:20;7.97;;;5.33;;
7917;SDS011;4004;42.624;23.386;2023-07-22T02:17:49;7.33;;;4.63;;
7917;SDS011;4004;42.624;23.386;2023-07-22T02:20:16;12.40;;;5.30;;
7917;SDS011;4004;42.624;23.386;2023-07-22T02:22:43;8.07;;;4.73;;
7917;SDS011;4004;42.624;23.386;2023-07-22T02:25:10;7.13;;;4.83;;
7917;SDS011;4004;42.624;23.386;2023-07-22T02:27:36;9.27;;;5.57;;
7917;SDS011;4004;42.624;23.386;2023-07-22T02:30:05;11.40;;;5.13;;
7917;SDS011;4004;42.624;23.386;2023-07-22T02:32:38;8.90;;;5.30;;
7917;SDS011;4004;42.624;23.386;2023-07-22T02:35:06;7.73;;;5.60;;
7917;SDS011;4004;42.624;23.386;2023-07-22T02:37:33;10.03;;;5.13;;
7917;SDS011;4004;42.624;23.386;2023-07-22T02:40:00;8.57;;;5.13;;
7917;SDS011;4004;42.624;23.386;2023-07-22T02:42:32;9.47;;;5.13;;
7917;SDS011;4004;42.624;23.386;2023-07-22T02:44:59;7.97;;;5.27;;
7917;SDS011;4004;42.624;23.386;2023-07-22T02:47:26;9.97;;;5.70;;
7917;SDS011;4004;42.624;23.386;2023-07-22T02:49:54;7.40;;;5.43;;
7917;SDS011;4004;42.624;23.386;2023-07-22T02:52:21;7.27;;;5.17;;
7917;SDS011;4004;42.624;23.386;2023-07-22T02:57:37;7.73;;;5.07;;
7917;SDS011;4004;42.624;23.386;2023-07-22T03:00:05;14.33;;;5.47;;
7917;SDS011;4004;42.624;23.386;2023-07-22T03:02:33;9.97;;;5.80;;
7917;SDS011;4004;42.624;23.386;2023-07-22T03:05:02;8.30;;;5.20;;
7917;SDS011;4004;42.624;23.386;2023-07-22T03:07:32;11.20;;;5.53;;
7917;SDS011;4004;42.624;23.386;2023-07-22T03:09:59;9.70;;;5.70;;
7917;SDS011;4004;42.624;23.386;2023-07-22T03:12:26;10.10;;;5.07;;
7917;SDS011;4004;42.624;23.386;2023-07-22T03:14:53;12.63;;;5.73;;
7917;SDS011;4004;42.624;23.386;2023-07-22T03:17:20;8.77;;;5.00;;
7917;SDS011;4004;42.624;23.386;2023-07-22T03:19:46;10.83;;;5.30;;
7917;SDS011;4004;42.624;23.386;2023-07-22T03:22:15;7.60;;;5.17;;
7917;SDS011;4004;42.624;23.386;2023-07-22T03:24:42;9.17;;;5.30;;
7917;SDS011;4004;42.624;23.386;2023-07-22T03:27:09;7.17;;;5.17;;
7917;SDS011;4004;42.624;23.386;2023-07-22T03:29:36;7.43;;;5.27;;
7917;SDS011;4004;42.624;23.386;2023-07-22T03:32:04;8.77;;;5.57;;
7917;SDS011;4004;42.624;23.386;2023-07-22T03:34:31;8.67;;;5.57;;
7917;SDS011;4004;42.624;23.386;2023-07-22T03:36:58;9.93;;;5.67;;
7917;SDS011;4004;42.624;23.386;2023-07-22T03:39:26;9.67;;;5.40;;
7917;SDS011;4004;42.624;23.386;2023-07-22T03:41:53;14.83;;;8.53;;
7917;SDS011;4004;42.624;23.386;2023-07-22T03:44:20;10.37;;;5.70;;
7917;SDS011;4004;42.624;23.386;2023-07-22T03:46:46;15.90;;;5.93;;
7917;SDS011;4004;42.624;23.386;2023-07-22T03:49:13;10.27;;;5.53;;
7917;SDS011;4004;42.624;23.386;2023-07-22T03:51:40;11.40;;;6.03;;
7917;SDS011;4004;42.624;23.386;2023-07-22T03:54:07;13.87;;;5.67;;
7917;SDS011;4004;42.624;23.386;2023-07-22T03:56:36;13.53;;;6.27;;
7917;SDS011;4004;42.624;23.386;2023-07-22T03:59:05;14.27;;;6.47;;
7917;SDS011;4004;42.624;23.386;2023-07-22T04:01:31;9.20;;;5.77;;
7917;SDS011;4004;42.624;23.386;2023-07-22T04:03:58;10.33;;;6.13;;
7917;SDS011;4004;42.624;23.386;2023-07-22T04:06:25;15.97;;;7.23;;
7917;SDS011;4004;42.624;23.386;2023-07-22T04:08:52;12.10;;;6.43;;
7917;SDS011;4004;42.624;23.386;2023-07-22T04:11:18;15.60;;;6.43;;
7917;SDS011;4004;42.624;23.386;2023-07-22T04:13:46;10.90;;;6.37;;
7917;SDS011;4004;42.624;23.386;2023-07-22T04:16:14;14.33;;;6.27;;
7917;SDS011;4004;42.624;23.386;2023-07-22T04:18:41;14.17;;;6.23;;
7917;SDS011;4004;42.624;23.386;2023-07-22T04:21:07;13.50;;;5.40;;
7917;SDS011;4004;42.624;23.386;2023-07-22T04:23:34;14.97;;;5.93;;
7917;SDS011;4004;42.624;23.386;2023-07-22T04:26:02;13.83;;;6.17;;
7917;SDS011;4004;42.624;23.386;2023-07-22T04:28:32;18.47;;;5.90;;
7917;SDS011;4004;42.624;23.386;2023-07-22T04:31:00;12.40;;;6.20;;
7917;SDS011;4004;42.624;23.386;2023-07-22T04:33:28;14.00;;;6.10;;
7917;SDS011;4004;42.624;23.386;2023-07-22T04:35:55;11.63;;;6.30;;
7917;SDS011;4004;42.624;23.386;2023-07-22T04:38:24;18.50;;;7.13;;
7917;SDS011;4004;42.624;23.386;2023-07-22T04:40:50;13.97;;;6.17;;
7917;SDS011;4004;42.624;23.386;2023-07-22T04:43:17;9.63;;;5.40;;
7917;SDS011;4004;42.624;23.386;2023-07-22T04:45:44;11.07;;;5.80;;
7917;SDS011;4004;42.624;23.386;2023-07-22T04:48:14;16.87;;;6.20;;
7917;SDS011;4004;42.624;23.386;2023-07-22T04:50:42;10.03;;;5.40;;
7917;SDS011;4004;42.624;23.386;2023-07-22T04:53:11;14.47;;;5.80;;
7917;SDS011;4004;42.624;23.386;2023-07-22T04:55:39;13.00;;;5.10;;
7917;SDS011;4004;42.624;23.386;2023-07-22T04:58:06;12.47;;;5.23;;
7917;SDS011;4004;42.624;23.386;2023-07-22T05:00:33;13.43;;;6.07;;
7917;SDS011;4004;42.624;23.386;2023-07-22T05:03:01;12.90;;;6.07;;
7917;SDS011;4004;42.624;23.386;2023-07-22T05:05:29;12.25;;;5.85;;
7917;SDS011;4004;42.624;23.386;2023-07-22T05:07:55;11.10;;;5.50;;
7917;SDS011;4004;42.624;23.386;2023-07-22T05:10:23;11.13;;;5.95;;
7917;SDS011;4004;42.624;23.386;2023-07-22T05:12:49;13.60;;;5.47;;
7917;SDS011;4004;42.624;23.386;2023-07-22T05:15:16;15.95;;;6.38;;
7917;SDS011;4004;42.624;23.386;2023-07-22T05:17:43;17.40;;;6.03;;
7917;SDS011;4004;42.624;23.386;2023-07-22T05:20:10;9.25;;;5.20;;
7917;SDS011;4004;42.624;23.386;2023-07-22T05:22:39;11.32;;;5.68;;
7917;SDS011;4004;42.624;23.386;2023-07-22T05:25:07;13.90;;;5.15;;
7917;SDS011;4004;42.624;23.386;2023-07-22T05:27:34;9.75;;;5.53;;
7917;SDS011;4004;42.624;23.386;2023-07-22T05:30:01;12.13;;;5.43;;
7917;SDS011;4004;42.624;23.386;2023-07-22T05:32:28;17.13;;;6.07;;
7917;SDS011;4004;42.624;23.386;2023-07-22T05:34:55;11.35;;;5.90;;
7917;SDS011;4004;42.624;23.386;2023-07-22T05:37:22;10.80;;;6.13;;
7917;SDS011;4004;42.624;23.386;2023-07-22T05:39:50;9.23;;;5.32;;
7917;SDS011;4004;42.624;23.386;2023-07-22T05:42:17;14.63;;;5.00;;
7917;SDS011;4004;42.624;23.386;2023-07-22T05:44:44;23.95;;;7.45;;
7917;SDS011;4004;42.624;23.386;2023-07-22T05:47:11;14.95;;;6.53;;
7917;SDS011;4004;42.624;23.386;2023-07-22T05:49:38;14.32;;;5.60;;
7917;SDS011;4004;42.624;23.386;2023-07-22T05:52:05;16.00;;;6.00;;
7917;SDS011;4004;42.624;23.386;2023-07-22T05:54:32;14.05;;;6.28;;
7917;SDS011;4004;42.624;23.386;2023-07-22T05:57:00;12.18;;;5.82;;
7917;SDS011;4004;42.624;23.386;2023-07-22T05:59:29;8.68;;;5.50;;
7917;SDS011;4004;42.624;23.386;2023-07-22T06:01:56;11.63;;;5.00;;
7917;SDS011;4004;42.624;23.386;2023-07-22T06:04:22;14.02;;;5.53;;
7917;SDS011;4004;42.624;23.386;2023-07-22T06:06:49;16.92;;;6.03;;
7917;SDS011;4004;42.624;23.386;2023-07-22T06:09:16;12.73;;;6.25;;
7917;SDS011;4004;42.624;23.386;2023-07-22T06:11:43;16.25;;;6.13;;
7917;SDS011;4004;42.624;23.386;2023-07-22T06:14:11;14.60;;;6.25;;
7917;SDS011;4004;42.624;23.386;2023-07-22T06:16:37;11.02;;;5.97;;
7917;SDS011;4004;42.624;23.386;2023-07-22T06:19:04;11.20;;;5.65;;
7917;SDS011;4004;42.624;23.386;2023-07-22T06:21:32;16.20;;;7.05;;
7917;SDS011;4004;42.624;23.386;2023-07-22T06:23:59;11.95;;;5.95;;
7917;SDS011;4004;42.624;23.386;2023-07-22T06:26:26;8.55;;;5.65;;
7917;SDS011;4004;42.624;23.386;2023-07-22T06:28:52;9.63;;;5.60;;
7917;SDS011;4004;42.624;23.386;2023-07-22T06:31:21;10.55;;;6.20;;
7917;SDS011;4004;42.624;23.386;2023-07-22T06:33:47;13.75;;;7.40;;
7917;SDS011;4004;42.624;23.386;2023-07-22T06:36:14;14.02;;;5.93;;
7917;SDS011;4004;42.624;23.386;2023-07-22T06:38:41;15.23;;;6.82;;
7917;SDS011;4004;42.624;23.386;2023-07-22T06:41:08;13.98;;;5.85;;
7917;SDS011;4004;42.624;23.386;2023-07-22T06:43:35;9.18;;;5.65;;
7917;SDS011;4004;42.624;23.386;2023-07-22T06:46:02;11.00;;;5.80;;
7917;SDS011;4004;42.624;23.386;2023-07-22T06:48:30;13.93;;;5.88;;
7917;SDS011;4004;42.624;23.386;2023-07-22T06:50:56;10.68;;;6.40;;
7917;SDS011;4004;42.624;23.386;2023-07-22T06:53:23;19.20;;;7.30;;
7917;SDS011;4004;42.624;23.386;2023-07-22T06:55:50;12.27;;;6.65;;
7917;SDS011;4004;42.624;23.386;2023-07-22T06:58:18;16.13;;;7.43;;
7917;SDS011;4004;42.624;23.386;2023-07-22T07:19:59;12.95;;;7.35;;
7917;SDS011;4004;42.624;23.386;2023-07-22T07:22:26;16.10;;;6.68;;
7917;SDS011;4004;42.624;23.386;2023-07-22T07:24:52;11.18;;;7.03;;
7917;SDS011;4004;42.624;23.386;2023-07-22T07:27:19;19.77;;;7.85;;
7917;SDS011;4004;42.624;23.386;2023-07-22T07:29:46;15.13;;;7.55;;
7917;SDS011;4004;42.624;23.386;2023-07-22T07:32:13;14.17;;;7.90;;
7917;SDS011;4004;42.624;23.386;2023-07-22T07:34:40;12.53;;;7.10;;
7917;SDS011;4004;42.624;23.386;2023-07-22T07:37:08;11.90;;;6.63;;
7917;SDS011;4004;42.624;23.386;2023-07-22T07:39:35;16.17;;;6.67;;
7917;SDS011;4004;42.624;23.386;2023-07-22T07:42:01;18.10;;;7.60;;
7917;SDS011;4004;42.624;23.386;2023-07-22T07:44:28;12.83;;;6.93;;
7917;SDS011;4004;42.624;23.386;2023-07-22T07:46:55;17.80;;;7.27;;
7917;SDS011;4004;42.624;23.386;2023-07-22T07:49:22;13.07;;;6.93;;
7917;SDS011;4004;42.624;23.386;2023-07-22T07:51:48;11.98;;;6.90;;
7917;SDS011;4004;42.624;23.386;2023-07-22T07:54:16;16.27;;;7.63;;
7917;SDS011;4004;42.624;23.386;2023-07-22T07:56:43;10.90;;;6.90;;
7917;SDS011;4004;42.624;23.386;2023-07-22T07:59:10;14.17;;;7.37;;
7917;SDS011;4004;42.624;23.386;2023-07-22T08:01:37;12.63;;;7.05;;
7917;SDS011;4004;42.624;23.386;2023-07-22T08:04:06;13.90;;;7.95;;
7917;SDS011;4004;42.624;23.386;2023-07-22T08:06:33;14.00;;;7.13;;
7917;SDS011;4004;42.624;23.386;2023-07-22T08:09:02;13.35;;;7.40;;
7917;SDS011;4004;42.624;23.386;2023-07-22T08:11:31;13.77;;;8.00;;
7917;SDS011;4004;42.624;23.386;2023-07-22T08:13:58;12.73;;;7.17;;
7917;SDS011;4004;42.624;23.386;2023-07-22T08:16:25;10.30;;;7.37;;
7917;SDS011;4004;42.624;23.386;2023-07-22T08:18:51;11.97;;;7.40;;
7917;SDS011;4004;42.624;23.386;2023-07-22T08:21:18;11.97;;;7.47;;
7917;SDS011;4004;42.624;23.386;2023-07-22T08:23:46;12.90;;;7.37;;
7917;SDS011;4004;42.624;23.386;2023-07-22T08:26:12;14.10;;;7.73;;
7917;SDS011;4004;42.624;23.386;2023-07-22T08:28:41;14.10;;;7.40;;
7917;SDS011;4004;42.624;23.386;2023-07-22T08:31:07;16.13;;;7.83;;
7917;SDS011;4004;42.624;23.386;2023-07-22T08:33:34;12.87;;;7.50;;
7917;SDS011;4004;42.624;23.386;2023-07-22T08:36:01;15.30;;;8.03;;
7917;SDS011;4004;42.624;23.386;2023-07-22T08:38:28;14.23;;;7.53;;
7917;SDS011;4004;42.624;23.386;2023-07-22T08:40:55;14.30;;;7.37;;
7917;SDS011;4004;42.624;23.386;2023-07-22T08:43:22;13.87;;;8.37;;
7917;SDS011;4004;42.624;23.386;2023-07-22T08:45:51;11.43;;;7.43;;
7917;SDS011;4004;42.624;23.386;2023-07-22T08:48:18;20.00;;;7.90;;
7917;SDS011;4004;42.624;23.386;2023-07-22T08:50:49;12.13;;;7.33;;
7917;SDS011;4004;42.624;23.386;2023-07-22T08:53:18;13.10;;;7.20;;
7917;SDS011;4004;42.624;23.386;2023-07-22T08:55:45;15.13;;;7.20;;
7917;SDS011;4004;42.624;23.386;2023-07-22T08:58:13;15.37;;;7.40;;
7917;SDS011;4004;42.624;23.386;2023-07-22T09:00:40;9.40;;;6.77;;
7917;SDS011;4004;42.624;23.386;2023-07-22T09:03:08;17.37;;;8.23;;
7917;SDS011;4004;42.624;23.386;2023-07-22T09:05:36;16.97;;;7.70;;
7917;SDS011;4004;42.624;23.386;2023-07-22T09:08:04;16.07;;;7.87;;
7917;SDS011;4004;42.624;23.386;2023-07-22T09:10:32;15.50;;;7.53;;
7917;SDS011;4004;42.624;23.386;2023-07-22T09:13:00;10.33;;;6.97;;
7917;SDS011;4004;42.624;23.386;2023-07-22T09:15:27;12.43;;;7.13;;
7917;SDS011;4004;42.624;23.386;2023-07-22T09:17:54;13.27;;;7.70;;
7917;SDS011;4004;42.624;23.386;2023-07-22T09:20:23;14.13;;;7.23;;
7917;SDS011;4004;42.624;23.386;2023-07-22T09:22:50;12.67;;;7.63;;
7917;SDS011;4004;42.624;23.386;2023-07-22T09:25:18;21.63;;;7.70;;
7917;SDS011;4004;42.624;23.386;2023-07-22T09:27:46;15.33;;;7.47;;
7917;SDS011;4004;42.624;23.386;2023-07-22T09:30:20;15.87;;;7.70;;
7917;SDS011;4004;42.624;23.386;2023-07-22T09:32:48;20.50;;;7.00;;
7917;SDS011;4004;42.624;23.386;2023-07-22T09:35:15;14.63;;;7.20;;
7917;SDS011;4004;42.624;23.386;2023-07-22T09:37:43;16.13;;;7.43;;
7917;SDS011;4004;42.624;23.386;2023-07-22T09:40:13;13.67;;;7.77;;
7917;SDS011;4004;42.624;23.386;2023-07-22T09:42:43;15.53;;;7.10;;
7917;SDS011;4004;42.624;23.386;2023-07-22T09:45:11;18.30;;;7.00;;
7917;SDS011;4004;42.624;23.386;2023-07-22T09:47:41;13.20;;;6.87;;
7917;SDS011;4004;42.624;23.386;2023-07-22T09:50:11;28.63;;;7.40;;
7917;SDS011;4004;42.624;23.386;2023-07-22T09:52:46;13.67;;;7.23;;
7917;SDS011;4004;42.624;23.386;2023-07-22T09:55:15;17.00;;;7.80;;
7917;SDS011;4004;42.624;23.386;2023-07-22T09:57:44;17.97;;;7.77;;
7917;SDS011;4004;42.624;23.386;2023-07-22T10:00:12;14.80;;;7.53;;
7917;SDS011;4004;42.624;23.386;2023-07-22T10:02:41;19.63;;;8.10;;
7917;SDS011;4004;42.624;23.386;2023-07-22T10:05:11;12.80;;;7.50;;
7917;SDS011;4004;42.624;23.386;2023-07-22T10:07:40;16.60;;;7.97;;
7917;SDS011;4004;42.624;23.386;2023-07-22T10:10:11;16.80;;;7.70;;
7917;SDS011;4004;42.624;23.386;2023-07-22T10:12:39;17.53;;;7.40;;
7917;SDS011;4004;42.624;23.386;2023-07-22T10:15:08;16.80;;;7.27;;
7917;SDS011;4004;42.624;23.386;2023-07-22T10:17:36;16.17;;;7.70;;
7917;SDS011;4004;42.624;23.386;2023-07-22T10:20:04;20.10;;;7.47;;
7917;SDS011;4004;42.624;23.386;2023-07-22T10:22:34;24.57;;;7.43;;
7917;SDS011;4004;42.624;23.386;2023-07-22T10:25:04;15.17;;;7.30;;
7917;SDS011;4004;42.624;23.386;2023-07-22T10:27:34;19.00;;;7.63;;
7917;SDS011;4004;42.624;23.386;2023-07-22T10:30:01;19.73;;;7.53;;
7917;SDS011;4004;42.624;23.386;2023-07-22T10:32:33;16.40;;;7.23;;
7917;SDS011;4004;42.624;23.386;2023-07-22T10:35:01;15.13;;;7.10;;
7917;SDS011;4004;42.624;23.386;2023-07-22T10:37:30;22.03;;;7.50;;
7917;SDS011;4004;42.624;23.386;2023-07-22T10:40:00;21.30;;;7.40;;
7917;SDS011;4004;42.624;23.386;2023-07-22T10:42:28;18.40;;;7.13;;
7917;SDS011;4004;42.624;23.386;2023-07-22T10:45:01;23.47;;;8.07;;
7917;SDS011;4004;42.624;23.386;2023-07-22T10:47:31;18.73;;;7.53;;
7917;SDS011;4004;42.624;23.386;2023-07-22T10:50:05;17.90;;;7.77;;
7917;SDS011;4004;42.624;23.386;2023-07-22T10:52:38;17.77;;;8.20;;
7917;SDS011;4004;42.624;23.386;2023-07-22T10:55:13;25.27;;;7.97;;
7917;SDS011;4004;42.624;23.386;2023-07-22T10:57:47;22.33;;;7.23;;
7917;SDS011;4004;42.624;23.386;2023-07-22T11:00:19;24.33;;;7.60;;
7917;SDS011;4004;42.624;23.386;2023-07-22T11:02:47;19.20;;;6.80;;
7917;SDS011;4004;42.624;23.386;2023-07-22T11:08:29;23.87;;;7.07;;
7917;SDS011;4004;42.624;23.386;2023-07-22T11:11:02;26.87;;;8.17;;
7917;SDS011;4004;42.624;23.386;2023-07-22T11:13:29;29.03;;;7.60;;
7917;SDS011;4004;42.624;23.386;2023-07-22T11:15:59;27.07;;;6.70;;
7917;SDS011;4004;42.624;23.386;2023-07-22T11:18:35;26.07;;;7.43;;
7917;SDS011;4004;42.624;23.386;2023-07-22T11:21:06;22.33;;;6.70;;
7917;SDS011;4004;42.624;23.386;2023-07-22T11:23:33;34.53;;;7.17;;
7917;SDS011;4004;42.624;23.386;2023-07-22T11:26:01;20.77;;;6.53;;
7917;SDS011;4004;42.624;23.386;2023-07-22T11:28:28;18.90;;;6.00;;
7917;SDS011;4004;42.624;23.386;2023-07-22T11:30:56;29.23;;;7.27;;
7917;SDS011;4004;42.624;23.386;2023-07-22T11:33:25;17.70;;;6.47;;
7917;SDS011;4004;42.624;23.386;2023-07-22T11:35:51;23.13;;;6.70;;
7917;SDS011;4004;42.624;23.386;2023-07-22T11:38:18;20.57;;;6.77;;
7917;SDS011;4004;42.624;23.386;2023-07-22T11:40:45;23.57;;;6.67;;
7917;SDS011;4004;42.624;23.386;2023-07-22T11:43:13;23.30;;;8.07;;
7917;SDS011;4004;42.624;23.386;2023-07-22T11:45:40;27.20;;;9.17;;
7917;SDS011;4004;42.624;23.386;2023-07-22T11:48:11;33.00;;;6.70;;
7917;SDS011;4004;42.624;23.386;2023-07-22T11:50:40;33.60;;;6.80;;
7917;SDS011;4004;42.624;23.386;2023-07-22T11:53:07;27.03;;;6.10;;
7917;SDS011;4004;42.624;23.386;2023-07-22T11:55:35;27.77;;;7.67;;
7917;SDS011;4004;42.624;23.386;2023-07-22T11:58:02;25.00;;;6.40;;
7917;SDS011;4004;42.624;23.386;2023-07-22T12:00:29;27.10;;;6.57;;
7917;SDS011;4004;42.624;23.386;2023-07-22T12:02:56;22.97;;;6.80;;
7917;SDS011;4004;42.624;23.386;2023-07-22T12:05:24;25.87;;;6.50;;
7917;SDS011;4004;42.624;23.386;2023-07-22T12:07:52;30.37;;;6.50;;
7917;SDS011;4004;42.624;23.386;2023-07-22T12:10:19;19.33;;;6.97;;
7917;SDS011;4004;42.624;23.386;2023-07-22T12:12:46;40.90;;;7.73;;
7917;SDS011;4004;42.624;23.386;2023-07-22T12:15:15;38.53;;;6.90;;
7917;SDS011;4004;42.624;23.386;2023-07-22T12:17:44;28.67;;;6.90;;
7917;SDS011;4004;42.624;23.386;2023-07-22T12:20:12;20.30;;;6.37;;
7917;SDS011;4004;42.624;23.386;2023-07-22T12:22:40;25.93;;;7.00;;
7917;SDS011;4004;42.624;23.386;2023-07-22T12:25:09;25.80;;;6.43;;
7917;SDS011;4004;42.624;23.386;2023-07-22T12:27:36;35.37;;;7.43;;
7917;SDS011;4004;42.624;23.386;2023-07-22T12:30:04;23.30;;;6.63;;
7917;SDS011;4004;42.624;23.386;2023-07-22T12:32:32;28.33;;;7.37;;
7917;SDS011;4004;42.624;23.386;2023-07-22T12:34:58;28.73;;;6.40;;
7917;SDS011;4004;42.624;23.386;2023-07-22T12:37:25;27.23;;;6.60;;
7917;SDS011;4004;42.624;23.386;2023-07-22T12:39:53;25.67;;;6.47;;
7917;SDS011;4004;42.624;23.386;2023-07-22T12:42:21;27.97;;;6.57;;
7917;SDS011;4004;42.624;23.386;2023-07-22T12:44:48;28.53;;;6.90;;
7917;SDS011;4004;42.624;23.386;2023-07-22T12:47:15;24.67;;;6.50;;
7917;SDS011;4004;42.624;23.386;2023-07-22T12:49:41;28.83;;;7.70;;
7917;SDS011;4004;42.624;23.386;2023-07-22T12:52:08;28.90;;;6.20;;
7917;SDS011;4004;42.624;23.386;2023-07-22T12:54:35;24.33;;;6.93;;
7917;SDS011;4004;42.624;23.386;2023-07-22T12:57:02;25.90;;;6.82;;
7917;SDS011;4004;42.624;23.386;2023-07-22T12:59:31;21.07;;;6.23;;
7917;SDS011;4004;42.624;23.386;2023-07-22T13:01:58;28.40;;;6.17;;
7917;SDS011;4004;42.624;23.386;2023-07-22T13:04:25;24.30;;;6.82;;
7917;SDS011;4004;42.624;23.386;2023-07-22T13:06:51;23.47;;;7.10;;
7917;SDS011;4004;42.624;23.386;2023-07-22T13:09:18;24.07;;;6.63;;
7917;SDS011;4004;42.624;23.386;2023-07-22T13:11:45;32.53;;;6.53;;
7917;SDS011;4004;42.624;23.386;2023-07-22T13:14:12;20.93;;;6.27;;
7917;SDS011;4004;42.624;23.386;2023-07-22T13:16:41;25.87;;;7.07;;
7917;SDS011;4004;42.624;23.386;2023-07-22T13:19:09;27.87;;;7.40;;
7917;SDS011;4004;42.624;23.386;2023-07-22T13:21:35;27.33;;;7.43;;
7917;SDS011;4004;42.624;23.386;2023-07-22T13:24:02;32.83;;;7.57;;
7917;SDS011;4004;42.624;23.386;2023-07-22T13:26:29;27.37;;;6.97;;
7917;SDS011;4004;42.624;23.386;2023-07-22T13:28:56;21.27;;;6.13;;
7917;SDS011;4004;42.624;23.386;2023-07-22T13:31:23;20.20;;;6.47;;
7917;SDS011;4004;42.624;23.386;2023-07-22T13:33:51;21.37;;;6.40;;
7917;SDS011;4004;42.624;23.386;2023-07-22T13:36:18;28.20;;;7.07;;
7917;SDS011;4004;42.624;23.386;2023-07-22T13:38:44;24.77;;;6.63;;
7917;SDS011;4004;42.624;23.386;2023-07-22T13:41:11;23.70;;;6.67;;
7917;SDS011;4004;42.624;23.386;2023-07-22T13:43:38;27.10;;;7.27;;
7917;SDS011;4004;42.624;23.386;2023-07-22T13:46:05;24.50;;;6.43;;
7917;SDS011;4004;42.624;23.386;2023-07-22T13:48:31;24.50;;;6.30;;
7917;SDS011;4004;42.624;23.386;2023-07-22T13:50:59;22.33;;;6.23;;
7917;SDS011;4004;42.624;23.386;2023-07-22T13:53:26;23.73;;;6.33;;
7917;SDS011;4004;42.624;23.386;2023-07-22T13:55:53;19.97;;;6.40;;
7917;SDS011;4004;42.624;23.386;2023-07-22T13:58:19;25.27;;;7.03;;
7917;SDS011;4004;42.624;23.386;2023-07-22T14:00:46;31.47;;;6.53;;
7917;SDS011;4004;42.624;23.386;2023-07-22T14:03:13;22.03;;;6.67;;
7917;SDS011;4004;42.624;23.386;2023-07-22T14:05:40;25.73;;;6.55;;
7917;SDS011;4004;42.624;23.386;2023-07-22T14:08:08;26.50;;;6.77;;
7917;SDS011;4004;42.624;23.386;2023-07-22T14:10:35;27.63;;;7.17;;
7917;SDS011;4004;42.624;23.386;2023-07-22T14:13:02;27.83;;;6.67;;
7917;SDS011;4004;42.624;23.386;2023-07-22T14:15:29;25.33;;;7.20;;
7917;SDS011;4004;42.624;23.386;2023-07-22T14:17:55;19.60;;;6.07;;
7917;SDS011;4004;42.624;23.386;2023-07-22T14:20:22;23.43;;;6.40;;
7917;SDS011;4004;42.624;23.386;2023-07-22T14:22:49;28.90;;;6.67;;
7917;SDS011;4004;42.624;23.386;2023-07-22T14:25:17;21.13;;;6.57;;
7917;SDS011;4004;42.624;23.386;2023-07-22T14:27:44;27.00;;;7.23;;
7917;SDS011;4004;42.624;23.386;2023-07-22T14:30:11;19.57;;;6.27;;
7917;SDS011;4004;42.624;23.386;2023-07-22T14:32:38;30.00;;;6.70;;
7917;SDS011;4004;42.624;23.386;2023-07-22T14:35:05;28.70;;;7.00;;
7917;SDS011;4004;42.624;23.386;2023-07-22T14:37:32;21.27;;;6.73;;
7917;SDS011;4004;42.624;23.386;2023-07-22T14:39:59;21.10;;;5.87;;
7917;SDS011;4004;42.624;23.386;2023-07-22T14:42:27;24.10;;;6.67;;
7917;SDS011;4004;42.624;23.386;2023-07-22T14:44:53;24.97;;;5.43;;
7917;SDS011;4004;42.624;23.386;2023-07-22T14:47:20;27.57;;;6.30;;
7917;SDS011;4004;42.624;23.386;2023-07-22T14:49:47;27.53;;;5.93;;
7917;SDS011;4004;42.624;23.386;2023-07-22T14:52:14;31.97;;;6.50;;
7917;SDS011;4004;42.624;23.386;2023-07-22T14:54:40;24.87;;;7.07;;
7917;SDS011;4004;42.624;23.386;2023-07-22T14:57:07;30.87;;;7.27;;
7917;SDS011;4004;42.624;23.386;2023-07-22T14:59:35;28.97;;;7.27;;
7917;SDS011;4004;42.624;23.386;2023-07-22T15:02:02;21.07;;;7.07;;
7917;SDS011;4004;42.624;23.386;2023-07-22T15:04:29;37.70;;;7.57;;
7917;SDS011;4004;42.624;23.386;2023-07-22T15:06:56;25.83;;;7.43;;
7917;SDS011;4004;42.624;23.386;2023-07-22T15:09:23;22.10;;;6.63;;
7917;SDS011;4004;42.624;23.386;2023-07-22T15:11:50;27.33;;;6.20;;
7917;SDS011;4004;42.624;23.386;2023-07-22T15:14:18;25.93;;;6.37;;
7917;SDS011;4004;42.624;23.386;2023-07-22T15:16:46;23.50;;;6.57;;